createdAt,value
2019-05-02T00:01:07.254Z,17.27
2019-05-02T00:03:41.195Z,15.20
2019-05-02T00:06:09.393Z,16.17
2019-05-02T00:08:40.542Z,17.37
2019-05-02T00:11:15.114Z,17.47
2019-05-02T00:13:44.879Z,15.80
2019-05-02T00:16:21.306Z,16.53
2019-05-02T00:18:55.554Z,16.45
2019-05-02T00:21:25.660Z,16.12
2019-05-02T00:23:59.263Z,16.10
2019-05-02T00:26:29.718Z,17.40
2019-05-02T00:29:06.045Z,17.05
2019-05-02T00:31:36.150Z,18.67
2019-05-02T00:34:06.057Z,17.50
2019-05-02T00:36:55.358Z,17.13
2019-05-02T00:39:25.246Z,18.25
2019-05-02T00:41:55.240Z,17.75
2019-05-02T00:44:25.399Z,17.67
2019-05-02T00:46:59.360Z,18.40
2019-05-02T00:49:30.806Z,18.07
2019-05-02T00:52:01.379Z,17.33
2019-05-02T00:54:32.447Z,17.83
2019-05-02T00:57:04.198Z,19.27
2019-05-02T00:59:37.747Z,19.37
2019-05-02T01:02:11.634Z,19.30
2019-05-02T01:04:51.731Z,19.27
2019-05-02T01:07:25.477Z,20.40
2019-05-02T01:10:03.081Z,18.60
2019-05-02T01:12:34.966Z,18.50
2019-05-02T01:15:08.479Z,20.37
2019-05-02T01:17:38.494Z,19.80
2019-05-02T01:20:09.874Z,19.45
2019-05-02T01:22:39.714Z,21.57
2019-05-02T01:25:17.010Z,18.73
2019-05-02T01:27:48.794Z,19.80
2019-05-02T01:30:28.182Z,19.92
2019-05-02T01:33:15.871Z,21.57
2019-05-02T01:35:53.095Z,20.15
2019-05-02T01:38:31.970Z,20.25
2019-05-02T01:40:58.954Z,20.57
2019-05-02T01:43:31.490Z,20.48
2019-05-02T01:46:02.155Z,19.27
2019-05-02T01:48:31.874Z,18.95
2019-05-02T01:51:04.517Z,20.20
2019-05-02T01:53:35.821Z,19.37
2019-05-02T01:56:06.100Z,20.60
2019-05-02T01:58:35.954Z,21.70
2019-05-02T02:01:05.792Z,21.77
2019-05-02T02:03:40.642Z,20.32
2019-05-02T02:06:10.127Z,20.77
2019-05-02T02:08:41.152Z,19.87
2019-05-02T02:11:11.295Z,22.35
2019-05-02T02:13:44.282Z,20.32
2019-05-02T02:16:15.474Z,21.90
2019-05-02T02:18:52.944Z,21.30
2019-05-02T02:21:27.660Z,21.85
2019-05-02T02:24:06.175Z,20.17
2019-05-02T02:26:36.020Z,21.95
2019-05-02T02:29:07.821Z,21.97
2019-05-02T02:31:39.906Z,22.85
2019-05-02T02:34:08.776Z,22.52
2019-05-02T02:36:38.839Z,21.33
2019-05-02T02:39:14.013Z,21.12
2019-05-02T02:41:45.292Z,22.75
2019-05-02T02:44:21.902Z,23.15
2019-05-02T02:46:56.981Z,21.62
2019-05-02T02:49:27.763Z,21.70
2019-05-02T02:52:03.892Z,22.02
2019-05-02T02:54:29.595Z,22.87
2019-05-02T02:57:01.705Z,19.82
2019-05-02T02:59:32.799Z,21.37
2019-05-02T03:02:11.683Z,20.90
2019-05-02T03:04:35.094Z,20.92
2019-05-02T03:07:11.292Z,22.42
2019-05-02T03:09:43.539Z,22.85
2019-05-02T03:12:20.928Z,21.40
2019-05-02T03:14:53.639Z,19.65
2019-05-02T03:17:28.785Z,20.23
2019-05-02T03:20:01.542Z,19.02
2019-05-02T03:22:41.987Z,19.40
2019-05-02T03:25:08.856Z,19.85
2019-05-02T03:27:40.444Z,20.08
2019-05-02T03:30:32.194Z,18.98
2019-05-02T03:33:02.766Z,18.35
2019-05-02T03:35:40.823Z,18.00
2019-05-02T03:37:58.095Z,18.70
2019-05-02T03:40:32.337Z,19.82
2019-05-02T03:43:04.351Z,17.65
2019-05-02T03:45:39.821Z,20.92
2019-05-02T03:48:25.759Z,18.23
2019-05-02T03:50:51.385Z,20.80
2019-05-02T03:53:25.184Z,22.50
2019-05-02T03:55:54.227Z,19.85
2019-05-02T03:58:24.242Z,21.48
2019-05-02T04:01:00.910Z,20.65
2019-05-02T04:03:26.671Z,20.43
2019-05-02T04:06:04.037Z,21.95
2019-05-02T04:08:38.016Z,23.95
2019-05-02T04:11:22.159Z,23.10
2019-05-02T04:13:53.755Z,22.40
2019-05-02T04:16:23.751Z,24.20
2019-05-02T04:18:57.695Z,23.27
2019-05-02T04:21:34.304Z,24.47
2019-05-02T04:24:12.935Z,22.95
2019-05-02T04:26:52.077Z,23.60
2019-05-02T04:29:13.571Z,22.32
2019-05-02T04:31:43.700Z,22.70
2019-05-02T04:34:19.372Z,22.60
2019-05-02T04:37:01.266Z,22.75
2019-05-02T04:39:30.210Z,22.15
2019-05-02T04:42:05.536Z,24.05
2019-05-02T04:44:46.663Z,24.37
2019-05-02T04:47:13.869Z,21.90
2019-05-02T04:49:36.812Z,24.10
2019-05-02T04:52:11.645Z,25.02
2019-05-02T04:54:42.152Z,23.15
2019-05-02T04:57:12.264Z,23.62
2019-05-02T04:59:50.628Z,24.00
2019-05-02T05:02:29.848Z,24.63
2019-05-02T05:04:53.739Z,23.03
2019-05-02T05:07:24.010Z,24.87
2019-05-02T05:09:58.322Z,22.83
2019-05-02T05:12:27.788Z,24.23
2019-05-02T05:15:00.444Z,23.90
2019-05-02T05:17:34.131Z,21.90
2019-05-02T05:20:14.237Z,26.60
2019-05-02T05:22:44.153Z,27.40
2019-05-02T05:25:17.627Z,27.77
2019-05-02T05:27:58.739Z,30.00
2019-05-02T05:30:27.728Z,27.07
2019-05-02T05:33:10.283Z,26.33
2019-05-02T05:35:52.417Z,27.33
2019-05-02T05:38:23.038Z,26.40
2019-05-02T05:40:52.095Z,26.60
2019-05-02T05:43:21.915Z,27.37
2019-05-02T05:45:56.415Z,26.33
2019-05-02T05:48:23.691Z,27.60
2019-05-02T05:50:53.891Z,27.97
2019-05-02T05:53:24.562Z,29.00
2019-05-02T05:56:01.001Z,28.17
2019-05-02T05:58:33.763Z,26.37
2019-05-02T06:01:09.348Z,24.77
2019-05-02T06:03:45.085Z,23.60
2019-05-02T06:06:22.436Z,22.70
2019-05-02T06:08:49.103Z,22.97
2019-05-02T06:11:23.446Z,21.00
2019-05-02T06:13:54.554Z,19.33
2019-05-02T06:16:26.598Z,19.80
2019-05-02T06:19:05.714Z,20.30
2019-05-02T06:21:39.985Z,19.67
2019-05-02T06:24:11.021Z,17.67
2019-05-02T06:26:52.004Z,16.90
2019-05-02T06:29:28.019Z,17.40
2019-05-02T06:32:02.361Z,15.40
2019-05-02T06:34:33.297Z,16.23
2019-05-02T06:37:03.427Z,16.40
2019-05-02T06:39:33.553Z,17.40
2019-05-02T06:42:03.647Z,16.77
2019-05-02T06:44:33.480Z,16.40
2019-05-02T06:47:04.252Z,15.27
2019-05-02T06:49:35.318Z,16.83
2019-05-02T06:52:06.444Z,15.70
2019-05-02T06:54:36.290Z,14.87
2019-05-02T06:57:06.373Z,14.27
2019-05-02T06:59:49.893Z,14.63
2019-05-02T07:02:20.415Z,14.57
2019-05-02T07:04:54.736Z,14.43
2019-05-02T07:07:32.172Z,14.33
2019-05-02T07:09:56.783Z,14.00
2019-05-02T07:12:28.203Z,13.87
2019-05-02T07:15:01.546Z,12.50
2019-05-02T07:17:38.185Z,12.23
2019-05-02T07:20:12.467Z,13.57
2019-05-02T07:22:45.468Z,11.10
2019-05-02T07:25:18.134Z,10.87
2019-05-02T07:27:52.367Z,10.57
2019-05-02T07:30:23.563Z,10.30
2019-05-02T07:32:56.291Z,10.27
2019-05-02T07:35:27.172Z,8.70
2019-05-02T07:37:56.855Z,8.90
2019-05-02T07:40:29.193Z,9.37
2019-05-02T07:42:58.971Z,9.17
2019-05-02T07:45:28.948Z,9.47
2019-05-02T07:48:01.497Z,8.80
2019-05-02T07:50:31.835Z,9.63
2019-05-02T07:53:04.517Z,8.80
2019-05-02T07:55:35.312Z,9.60
2019-05-02T07:58:11.604Z,10.00
2019-05-02T08:00:42.403Z,8.50
2019-05-02T08:03:12.379Z,9.63
2019-05-02T08:05:54.481Z,8.30
2019-05-02T08:08:29.522Z,9.13
2019-05-02T08:11:01.663Z,7.50
2019-05-02T08:13:31.493Z,8.80
2019-05-02T08:16:01.715Z,7.43
2019-05-02T08:18:31.895Z,7.90
2019-05-02T08:21:05.295Z,7.57
2019-05-02T08:23:36.358Z,7.77
2019-05-02T08:26:06.457Z,8.27
2019-05-02T08:28:38.190Z,7.93
2019-05-02T08:31:13.563Z,8.43
2019-05-02T08:33:47.928Z,7.67
2019-05-02T08:36:25.780Z,8.23
2019-05-02T08:39:02.423Z,8.40
2019-05-02T08:41:32.387Z,7.33
2019-05-02T08:44:02.484Z,6.90
2019-05-02T08:46:39.371Z,7.37
2019-05-02T08:49:20.115Z,7.87
2019-05-02T08:51:56.595Z,7.20
2019-05-02T08:54:36.756Z,7.13
2019-05-02T08:57:07.815Z,7.80
2019-05-02T08:59:40.664Z,7.37
2019-05-02T09:02:15.503Z,7.43
2019-05-02T09:04:58.565Z,7.67
2019-05-02T09:07:24.275Z,6.13
2019-05-02T09:09:55.589Z,6.87
2019-05-02T09:12:25.575Z,6.20
2019-05-02T09:14:55.547Z,6.50
2019-05-02T09:17:35.448Z,6.00
2019-05-02T09:20:10.599Z,6.50
2019-05-02T09:22:35.707Z,7.53
2019-05-02T09:25:09.108Z,6.53
2019-05-02T09:27:39.203Z,6.80
2019-05-02T09:30:17.279Z,6.87
2019-05-02T09:33:04.947Z,7.23
2019-05-02T09:35:29.725Z,7.13
2019-05-02T09:38:01.643Z,6.93
2019-05-02T09:40:37.467Z,6.93
2019-05-02T09:43:07.571Z,5.80
2019-05-02T09:45:41.279Z,6.70
2019-05-02T09:48:17.184Z,6.83
2019-05-02T09:50:57.930Z,6.80
2019-05-02T09:53:32.382Z,7.47
2019-05-02T09:56:02.652Z,6.37
2019-05-02T09:58:32.763Z,6.77
2019-05-02T10:01:04.239Z,6.90
2019-05-02T10:03:34.179Z,6.53
2019-05-02T10:06:08.304Z,5.83
2019-05-02T10:08:43.515Z,7.97
2019-05-02T10:11:17.031Z,5.93
2019-05-02T10:13:45.687Z,5.53
2019-05-02T10:16:17.945Z,5.73
2019-05-02T10:18:48.408Z,6.40
2019-05-02T10:21:18.243Z,8.10
2019-05-02T10:23:51.828Z,8.40
2019-05-02T10:26:23.781Z,8.60
2019-05-02T10:28:53.367Z,5.40
2019-05-02T10:31:37.672Z,8.50
2019-05-02T10:34:15.850Z,6.37
2019-05-02T10:36:43.314Z,7.17
2019-05-02T10:39:15.834Z,6.00
2019-05-02T10:41:46.053Z,6.10
2019-05-02T10:44:16.139Z,6.23
2019-05-02T10:46:57.339Z,5.97
2019-05-02T10:49:45.084Z,6.70
2019-05-02T10:52:15.879Z,6.30
2019-05-02T10:54:45.623Z,7.87
2019-05-02T10:57:15.318Z,7.23
2019-05-02T10:59:45.283Z,6.67
2019-05-02T11:02:24.401Z,6.80
2019-05-02T11:04:58.967Z,7.10
2019-05-02T11:07:29.059Z,5.10
2019-05-02T11:10:04.537Z,6.00
2019-05-02T11:12:49.053Z,7.53
2019-05-02T11:15:37.271Z,5.50
2019-05-02T11:18:07.531Z,5.40
2019-05-02T11:20:38.160Z,5.80
2019-05-02T11:23:08.287Z,6.00
2019-05-02T11:25:39.027Z,5.60
2019-05-02T11:28:09.043Z,5.50
2019-05-02T11:30:48.425Z,5.90
2019-05-02T11:33:18.528Z,5.70
2019-05-02T11:35:50.805Z,6.30
2019-05-02T11:38:47.231Z,6.73
2019-05-02T11:40:52.054Z,7.53
2019-05-02T11:43:22.433Z,6.23
2019-05-02T11:45:54.192Z,6.47
2019-05-02T11:48:25.321Z,6.10
2019-05-02T11:50:57.920Z,5.90
2019-05-02T11:53:29.571Z,7.33
2019-05-02T11:56:03.662Z,7.07
2019-05-02T11:58:42.434Z,6.80
2019-05-02T12:01:07.963Z,7.27
2019-05-02T12:03:39.542Z,8.40
2019-05-02T12:06:12.219Z,7.73
2019-05-02T12:08:45.053Z,9.80
2019-05-02T12:11:17.717Z,8.40
2019-05-02T12:13:56.920Z,9.03
2019-05-02T12:16:33.411Z,9.03
2019-05-02T12:19:11.342Z,8.30
2019-05-02T12:21:35.271Z,8.33
2019-05-02T12:24:12.702Z,8.60
2019-05-02T12:26:42.691Z,9.27
2019-05-02T12:29:12.789Z,9.37
2019-05-02T12:31:47.276Z,7.77
2019-05-02T12:34:16.755Z,8.90
2019-05-02T12:36:47.847Z,10.43
2019-05-02T12:39:18.795Z,10.10
2019-05-02T12:41:57.596Z,9.27
2019-05-02T12:44:28.851Z,7.63
2019-05-02T12:47:05.831Z,8.87
2019-05-02T12:49:35.999Z,8.73
2019-05-02T12:52:06.883Z,6.90
2019-05-02T12:54:36.575Z,7.20
2019-05-02T12:57:06.259Z,7.77
2019-05-02T12:59:37.155Z,9.80
2019-05-02T13:02:09.087Z,9.20
2019-05-02T13:04:39.198Z,8.30
2019-05-02T13:07:15.071Z,9.60
2019-05-02T13:09:45.164Z,9.23
2019-05-02T13:12:18.028Z,9.00
2019-05-02T13:14:55.012Z,8.23
2019-05-02T13:17:29.320Z,9.67
2019-05-02T13:20:03.066Z,9.67
2019-05-02T13:22:41.978Z,9.90
2019-05-02T13:25:13.867Z,9.43
2019-05-02T13:27:48.151Z,12.77
2019-05-02T13:30:32.829Z,10.20
2019-05-02T13:33:03.766Z,12.07
2019-05-02T13:35:39.687Z,11.63
2019-05-02T13:38:09.374Z,11.47
2019-05-02T13:40:41.888Z,11.67
2019-05-02T13:43:14.711Z,11.47
2019-05-02T13:45:49.935Z,10.17
2019-05-02T13:48:21.795Z,10.00
2019-05-02T13:50:51.951Z,9.93
2019-05-02T13:53:22.704Z,8.33
2019-05-02T13:55:58.751Z,7.47
2019-05-02T13:58:30.336Z,8.53
2019-05-02T14:01:03.336Z,8.30
2019-05-02T14:03:34.075Z,7.40
2019-05-02T14:06:04.551Z,8.40
2019-05-02T14:08:55.913Z,8.30
2019-05-02T14:11:43.369Z,7.20
2019-05-02T14:14:13.409Z,7.10
2019-05-02T14:16:43.530Z,7.70
2019-05-02T14:19:13.623Z,7.50
2019-05-02T14:21:43.723Z,7.37
2019-05-02T14:24:13.891Z,8.20
2019-05-02T14:26:52.385Z,8.40
2019-05-02T14:29:25.443Z,9.73
2019-05-02T14:31:55.563Z,9.00
2019-05-02T14:34:27.035Z,8.63
2019-05-02T14:36:59.469Z,8.97
2019-05-02T14:39:32.547Z,8.00
2019-05-02T14:42:04.066Z,8.63
2019-05-02T14:45:01.365Z,8.80
2019-05-02T14:47:10.090Z,9.23
2019-05-02T14:49:38.327Z,8.40
2019-05-02T14:52:08.161Z,9.33
2019-05-02T14:54:42.864Z,8.80
2019-05-02T14:57:11.980Z,6.90
2019-05-02T14:59:42.871Z,7.80
2019-05-02T15:02:15.058Z,7.60
2019-05-02T15:04:48.860Z,8.50
2019-05-02T15:07:22.901Z,6.83
2019-05-02T15:09:57.210Z,7.63
2019-05-02T15:12:26.488Z,7.60
2019-05-02T15:14:58.872Z,7.10
2019-05-02T15:17:33.650Z,8.00
2019-05-02T15:20:02.665Z,7.47
2019-05-02T15:22:42.498Z,8.17
2019-05-02T15:25:17.817Z,7.40
2019-05-02T15:27:45.459Z,9.10
2019-05-02T15:30:17.847Z,7.47
2019-05-02T15:32:51.968Z,7.20
2019-05-02T15:35:26.817Z,6.73
2019-05-02T15:38:06.525Z,7.23
2019-05-02T15:40:43.504Z,7.10
2019-05-02T15:43:15.224Z,6.60
2019-05-02T15:45:45.535Z,6.20
2019-05-02T15:48:27.568Z,7.97
2019-05-02T15:50:55.621Z,8.90
2019-05-02T15:53:28.000Z,7.47
2019-05-02T15:55:59.084Z,8.00
2019-05-02T15:58:30.120Z,8.37
2019-05-02T16:01:12.088Z,7.53
2019-05-02T16:03:52.475Z,8.10
2019-05-02T16:06:30.388Z,9.23
2019-05-02T16:08:54.459Z,8.10
2019-05-02T16:11:33.798Z,8.43
2019-05-02T16:14:09.755Z,8.57
2019-05-02T16:16:43.771Z,8.40
2019-05-02T16:19:15.030Z,9.07
2019-05-02T16:21:46.040Z,8.33
2019-05-02T16:24:19.381Z,9.00
2019-05-02T16:26:52.996Z,9.77
2019-05-02T16:29:32.267Z,9.00
2019-05-02T16:32:10.040Z,9.27
2019-05-02T16:34:44.504Z,8.53
2019-05-02T16:37:16.752Z,9.20
2019-05-02T16:39:49.707Z,10.13
2019-05-02T16:42:19.844Z,9.47
2019-05-02T16:44:55.772Z,9.10
2019-05-02T16:47:25.880Z,9.17
2019-05-02T16:49:56.987Z,10.23
2019-05-02T16:52:27.091Z,8.77
2019-05-02T16:54:57.211Z,8.80
2019-05-02T16:57:27.326Z,9.13
2019-05-02T17:00:01.324Z,9.00
2019-05-02T17:02:29.236Z,7.67
2019-05-02T17:05:00.181Z,8.93
2019-05-02T17:07:34.860Z,8.60
2019-05-02T17:10:28.768Z,7.60
2019-05-02T17:13:00.853Z,8.20
2019-05-02T17:15:35.372Z,9.20
2019-05-02T17:18:17.991Z,8.70
2019-05-02T17:20:39.527Z,8.70
2019-05-02T17:23:09.439Z,8.80
2019-05-02T17:25:39.409Z,10.53
2019-05-02T17:28:13.155Z,9.13
2019-05-02T17:30:43.230Z,8.97
2019-05-02T17:33:16.274Z,9.47
2019-05-02T17:35:51.492Z,9.33
2019-05-02T17:38:27.702Z,8.70
2019-05-02T17:40:54.471Z,8.40
2019-05-02T17:43:25.196Z,10.07
2019-05-02T17:45:56.419Z,10.70
2019-05-02T17:48:29.367Z,7.60
2019-05-02T17:51:15.816Z,8.00
2019-05-02T17:53:50.023Z,7.70
2019-05-02T17:56:22.352Z,8.83
2019-05-02T17:58:58.454Z,8.17
2019-05-02T18:01:43.616Z,9.00
2019-05-02T18:04:16.599Z,9.67
2019-05-02T18:06:56.072Z,8.50
2019-05-02T18:09:30.953Z,8.13
2019-05-02T18:11:58.282Z,9.53
2019-05-02T18:14:34.424Z,9.40
2019-05-02T18:17:16.404Z,10.33
2019-05-02T18:19:46.508Z,15.10
2019-05-02T18:22:24.171Z,11.20
2019-05-02T18:24:53.577Z,7.97
2019-05-02T18:27:30.664Z,7.93
2019-05-02T18:30:17.233Z,8.30
2019-05-02T18:32:48.877Z,9.93
2019-05-02T18:35:28.488Z,8.97
2019-05-02T18:38:06.410Z,10.57
2019-05-02T18:40:36.511Z,8.50
2019-05-02T18:43:07.980Z,9.53
2019-05-02T18:45:38.088Z,10.30
2019-05-02T18:48:08.327Z,9.73
2019-05-02T18:50:46.151Z,9.87
2019-05-02T18:53:13.903Z,11.50
2019-05-02T18:55:44.537Z,11.90
2019-05-02T18:58:16.556Z,11.83
2019-05-02T19:00:46.976Z,11.23
2019-05-02T19:03:17.366Z,12.10
2019-05-02T19:05:51.684Z,11.97
2019-05-02T19:08:29.147Z,12.17
2019-05-02T19:11:05.339Z,13.00
2019-05-02T19:13:22.627Z,14.37
2019-05-02T19:15:53.433Z,13.37
2019-05-02T19:18:24.604Z,18.30
2019-05-02T19:20:58.972Z,19.93
2019-05-02T19:23:29.381Z,13.50
2019-05-02T19:26:09.643Z,13.90
2019-05-02T19:28:39.644Z,12.77
2019-05-02T19:31:09.480Z,11.80
2019-05-02T19:33:42.607Z,13.10
2019-05-02T19:36:16.175Z,12.30
2019-05-02T19:38:57.433Z,11.03
2019-05-02T19:41:24.803Z,11.60
2019-05-02T19:43:54.864Z,14.50
2019-05-02T19:46:38.581Z,13.37
2019-05-02T19:49:06.973Z,12.83
2019-05-02T19:51:39.928Z,15.80
2019-05-02T19:54:10.106Z,14.47
2019-05-02T19:56:47.101Z,11.90
2019-05-02T19:59:21.850Z,13.07
2019-05-02T20:01:52.243Z,11.73
2019-05-02T20:04:23.752Z,13.73
2019-05-02T20:06:55.112Z,12.97
2019-05-02T20:09:26.552Z,12.60
2019-05-02T20:11:56.902Z,13.27
2019-05-02T20:14:27.070Z,12.00
2019-05-02T20:16:58.048Z,13.03
2019-05-02T20:19:28.628Z,13.13
2019-05-02T20:22:05.344Z,12.73
2019-05-02T20:24:33.666Z,12.00
2019-05-02T20:27:08.205Z,12.53
2019-05-02T20:29:39.348Z,11.70
2019-05-02T20:32:13.104Z,11.83
2019-05-02T20:34:49.888Z,11.20
2019-05-02T20:37:22.206Z,11.70
2019-05-02T20:39:52.296Z,12.23
2019-05-02T20:42:23.413Z,10.67
2019-05-02T20:44:53.384Z,11.40
2019-05-02T20:47:25.946Z,11.30
2019-05-02T20:49:55.850Z,11.17
2019-05-02T20:52:25.880Z,10.70
2019-05-02T20:54:57.632Z,10.80
2019-05-02T20:57:27.604Z,10.27
2019-05-02T20:59:57.556Z,9.20
2019-05-02T21:02:29.448Z,10.73
2019-05-02T21:04:59.560Z,9.83
2019-05-02T21:07:33.345Z,10.70
2019-05-02T21:10:12.748Z,8.53
2019-05-02T21:12:42.918Z,10.20
2019-05-02T21:15:21.618Z,10.40
2019-05-02T21:17:51.810Z,9.63
2019-05-02T21:20:22.933Z,9.70
2019-05-02T21:22:53.193Z,9.77
2019-05-02T21:25:23.456Z,9.17
2019-05-02T21:27:53.560Z,8.70
2019-05-02T21:30:28.004Z,9.53
2019-05-02T21:32:59.974Z,10.33
2019-05-02T21:35:31.860Z,9.80
2019-05-02T21:38:11.990Z,7.90
2019-05-02T21:40:47.784Z,9.50
2019-05-02T21:43:19.712Z,10.00
2019-05-02T21:45:52.948Z,9.73
2019-05-02T21:48:24.370Z,9.50
2019-05-02T21:50:58.504Z,8.20
2019-05-02T21:53:54.932Z,9.60
2019-05-02T21:56:21.768Z,9.00
2019-05-02T21:59:08.313Z,9.90
2019-05-02T22:01:51.925Z,10.20
2019-05-02T22:04:23.436Z,8.97
2019-05-02T22:06:53.674Z,9.37
2019-05-02T22:09:25.292Z,9.87
2019-05-02T22:12:07.798Z,10.17
2019-05-02T22:14:37.974Z,10.40
2019-05-02T22:17:09.387Z,10.07
2019-05-02T22:19:41.597Z,10.50
2019-05-02T22:22:15.164Z,9.90
2019-05-02T22:24:47.221Z,9.80
2019-05-02T22:27:17.072Z,10.13
2019-05-02T22:29:46.757Z,9.27
2019-05-02T22:32:22.814Z,10.10
2019-05-02T22:34:55.828Z,10.23
2019-05-02T22:37:27.312Z,8.83
2019-05-02T22:39:59.305Z,10.20
2019-05-02T22:42:32.266Z,11.37
2019-05-02T22:45:04.585Z,10.37
2019-05-02T22:47:34.856Z,9.90
2019-05-02T22:50:07.744Z,11.03
2019-05-02T22:52:37.866Z,11.20
2019-05-02T22:55:08.873Z,11.10
2019-05-02T22:57:44.017Z,11.83
2019-05-02T23:00:14.180Z,11.17
2019-05-02T23:02:43.872Z,10.80
2019-05-02T23:05:14.088Z,13.17
2019-05-02T23:07:49.900Z,13.40
2019-05-02T23:10:19.860Z,12.30
2019-05-02T23:12:55.834Z,12.93
2019-05-02T23:15:25.947Z,12.80
2019-05-02T23:17:56.056Z,13.47
2019-05-02T23:20:26.170Z,13.60
2019-05-02T23:22:57.224Z,12.20
2019-05-02T23:25:46.910Z,12.20
2019-05-02T23:28:18.646Z,12.87
2019-05-02T23:30:49.529Z,14.30
2019-05-02T23:33:19.722Z,12.63
2019-05-02T23:35:49.846Z,11.93
2019-05-02T23:38:21.785Z,12.40
2019-05-02T23:40:52.614Z,12.97
2019-05-02T23:43:32.115Z,13.50
2019-05-02T23:46:02.326Z,13.67
2019-05-02T23:48:33.417Z,12.97
2019-05-02T23:51:04.482Z,11.73
2019-05-02T23:53:34.595Z,12.63
2019-05-02T23:56:04.864Z,14.17
2019-05-02T23:58:35.925Z,13.57
